sensor_id;sensor_type;location;lat;lon;timestamp;pressure;altitude;pressure_sealevel;temperature;humidity
82413;BME280;72056;51.980;15.436;2023-09-19T00:02:52;99900.34;;;16.33;100.00
82413;BME280;72056;51.980;15.436;2023-09-19T00:05:44;99889.28;;;16.20;100.00
82413;BME280;72056;51.980;15.436;2023-09-19T00:08:50;99910.25;;;16.27;100.00
82413;BME280;72056;51.980;15.436;2023-09-19T00:11:58;99905.75;;;16.20;100.00
82413;BME280;72056;51.980;15.436;2023-09-19T00:15:04;99904.06;;;16.19;100.00
82413;BME280;72056;51.980;15.436;2023-09-19T00:18:29;99905.97;;;16.18;100.00
82413;BME280;72056;51.980;15.436;2023-09-19T00:21:04;99900.41;;;16.12;100.00
82413;BME280;72056;51.980;15.436;2023-09-19T00:24:30;99899.34;;;16.13;100.00
82413;BME280;72056;51.980;15.436;2023-09-19T00:27:33;99902.28;;;16.11;100.00
82413;BME280;72056;51.980;15.436;2023-09-19T00:30:42;99902.47;;;16.10;100.00
82413;BME280;72056;51.980;15.436;2023-09-19T00:33:11;99892.75;;;16.07;100.00
82413;BME280;72056;51.980;15.436;2023-09-19T00:36:17;99895.44;;;16.01;100.00
82413;BME280;72056;51.980;15.436;2023-09-19T00:39:06;99893.22;;;15.89;100.00
82413;BME280;72056;51.980;15.436;2023-09-19T00:42:20;99914.16;;;15.90;100.00
82413;BME280;72056;51.980;15.436;2023-09-19T00:45:26;99913.22;;;15.83;100.00
82413;BME280;72056;51.980;15.436;2023-09-19T00:48:12;99901.06;;;15.71;100.00
82413;BME280;72056;51.980;15.436;2023-09-19T00:51:20;99901.16;;;15.63;100.00
82413;BME280;72056;51.980;15.436;2023-09-19T00:54:29;99916.09;;;15.75;100.00
82413;BME280;72056;51.980;15.436;2023-09-19T00:57:35;99902.09;;;15.70;100.00
82413;BME280;72056;51.980;15.436;2023-09-19T01:00:40;99901.44;;;15.68;100.00
82413;BME280;72056;51.980;15.436;2023-09-19T01:03:46;99892.56;;;15.66;100.00
82413;BME280;72056;51.980;15.436;2023-09-19T01:06:32;99890.09;;;15.71;100.00
82413;BME280;72056;51.980;15.436;2023-09-19T01:09:38;99877.22;;;15.72;100.00
82413;BME280;72056;51.980;15.436;2023-09-19T01:16:15;99881.44;;;15.74;100.00
82413;BME280;72056;51.980;15.436;2023-09-19T01:29:36;99883.28;;;15.88;100.00
82413;BME280;72056;51.980;15.436;2023-09-19T01:32:44;99881.41;;;15.89;100.00
82413;BME280;72056;51.980;15.436;2023-09-19T01:35:29;99861.06;;;15.83;100.00
82413;BME280;72056;51.980;15.436;2023-09-19T01:38:55;99875.13;;;15.95;100.00
82413;BME280;72056;51.980;15.436;2023-09-19T01:42:41;99871.31;;;15.96;100.00
82413;BME280;72056;51.980;15.436;2023-09-19T01:45:12;99875.56;;;15.99;100.00
82413;BME280;72056;51.980;15.436;2023-09-19T01:51:33;99866.69;;;15.97;100.00
82413;BME280;72056;51.980;15.436;2023-09-19T01:55:00;99870.72;;;16.01;100.00
82413;BME280;72056;51.980;15.436;2023-09-19T01:57:51;99859.88;;;15.92;100.00
82413;BME280;72056;51.980;15.436;2023-09-19T02:00:54;99873.22;;;15.96;100.00
82413;BME280;72056;51.980;15.436;2023-09-19T02:04:00;99864.31;;;15.93;100.00
82413;BME280;72056;51.980;15.436;2023-09-19T02:07:06;99839.16;;;15.90;100.00
82413;BME280;72056;51.980;15.436;2023-09-19T02:10:06;99857.97;;;15.93;100.00
82413;BME280;72056;51.980;15.436;2023-09-19T02:13:18;99843.16;;;15.87;100.00
82413;BME280;72056;51.980;15.436;2023-09-19T02:16:03;99848.81;;;15.86;100.00
82413;BME280;72056;51.980;15.436;2023-09-19T02:18:50;99843.69;;;15.76;100.00
82413;BME280;72056;51.980;15.436;2023-09-19T02:21:55;99858.75;;;15.87;100.00
82413;BME280;72056;51.980;15.436;2023-09-19T02:25:21;99866.16;;;15.86;100.00
82413;BME280;72056;51.980;15.436;2023-09-19T02:28:29;99867.66;;;15.89;100.00
82413;BME280;72056;51.980;15.436;2023-09-19T02:31:35;99872.13;;;15.90;100.00
82413;BME280;72056;51.980;15.436;2023-09-19T02:34:43;99856.44;;;15.84;100.00
82413;BME280;72056;51.980;15.436;2023-09-19T02:37:49;99875.06;;;15.88;100.00
82413;BME280;72056;51.980;15.436;2023-09-19T02:41:15;99873.75;;;15.84;100.00
82413;BME280;72056;51.980;15.436;2023-09-19T02:44:00;99875.16;;;15.80;100.00
82413;BME280;72056;51.980;15.436;2023-09-19T02:47:06;99876.03;;;15.81;100.00
82413;BME280;72056;51.980;15.436;2023-09-19T02:50:12;99873.47;;;15.79;100.00
82413;BME280;72056;51.980;15.436;2023-09-19T02:53:18;99874.06;;;15.75;100.00
82413;BME280;72056;51.980;15.436;2023-09-19T02:56:43;99872.91;;;15.84;100.00
82413;BME280;72056;51.980;15.436;2023-09-19T02:59:53;99866.34;;;15.85;100.00
82413;BME280;72056;51.980;15.436;2023-09-19T03:02:58;99872.06;;;15.83;100.00
82413;BME280;72056;51.980;15.436;2023-09-19T03:06:07;99872.69;;;15.85;100.00
82413;BME280;72056;51.980;15.436;2023-09-19T03:09:13;99874.19;;;15.88;100.00
82413;BME280;72056;51.980;15.436;2023-09-19T03:12:19;99885.63;;;15.91;100.00
82413;BME280;72056;51.980;15.436;2023-09-19T03:15:27;99876.69;;;15.83;100.00
82413;BME280;72056;51.980;15.436;2023-09-19T03:17:53;99883.88;;;15.84;100.00
82413;BME280;72056;51.980;15.436;2023-09-19T03:20:20;99874.13;;;15.81;100.00
82413;BME280;72056;51.980;15.436;2023-09-19T03:22:46;99882.19;;;15.83;100.00
82413;BME280;72056;51.980;15.436;2023-09-19T03:25:13;99870.28;;;15.76;100.00
82413;BME280;72056;51.980;15.436;2023-09-19T03:27:40;99877.53;;;15.83;100.00
82413;BME280;72056;51.980;15.436;2023-09-19T03:30:08;99880.91;;;15.85;100.00
82413;BME280;72056;51.980;15.436;2023-09-19T03:32:35;99877.97;;;15.87;100.00
82413;BME280;72056;51.980;15.436;2023-09-19T03:35:02;99867.34;;;15.77;100.00
82413;BME280;72056;51.980;15.436;2023-09-19T03:37:49;99882.00;;;15.84;100.00
82413;BME280;72056;51.980;15.436;2023-09-19T03:40:18;99876.69;;;15.83;100.00
82413;BME280;72056;51.980;15.436;2023-09-19T03:42:47;99880.66;;;15.80;100.00
82413;BME280;72056;51.980;15.436;2023-09-19T03:45:13;99877.91;;;15.80;100.00
82413;BME280;72056;51.980;15.436;2023-09-19T03:47:41;99877.06;;;15.80;100.00
82413;BME280;72056;51.980;15.436;2023-09-19T03:50:09;99877.53;;;15.83;100.00
82413;BME280;72056;51.980;15.436;2023-09-19T03:52:41;99889.38;;;15.84;100.00
82413;BME280;72056;51.980;15.436;2023-09-19T03:55:08;99886.63;;;15.84;100.00
82413;BME280;72056;51.980;15.436;2023-09-19T03:57:36;99880.41;;;15.75;100.00
82413;BME280;72056;51.980;15.436;2023-09-19T04:00:04;99892.31;;;15.82;100.00
82413;BME280;72056;51.980;15.436;2023-09-19T04:02:32;99884.50;;;15.86;100.00
82413;BME280;72056;51.980;15.436;2023-09-19T04:04:58;99891.53;;;15.88;100.00
82413;BME280;72056;51.980;15.436;2023-09-19T04:07:27;99908.38;;;15.85;100.00
82413;BME280;72056;51.980;15.436;2023-09-19T04:10:12;99885.88;;;15.75;100.00
82413;BME280;72056;51.980;15.436;2023-09-19T04:12:40;99894.38;;;15.80;100.00
82413;BME280;72056;51.980;15.436;2023-09-19T04:15:08;99894.78;;;15.77;100.00
82413;BME280;72056;51.980;15.436;2023-09-19T04:17:39;99904.72;;;15.78;100.00
82413;BME280;72056;51.980;15.436;2023-09-19T04:20:07;99891.84;;;15.79;100.00
82413;BME280;72056;51.980;15.436;2023-09-19T04:22:38;99894.91;;;15.69;100.00
82413;BME280;72056;51.980;15.436;2023-09-19T04:25:05;99913.59;;;15.80;100.00
82413;BME280;72056;51.980;15.436;2023-09-19T04:27:36;99913.16;;;15.77;100.00
82413;BME280;72056;51.980;15.436;2023-09-19T04:30:06;99919.75;;;15.82;100.00
82413;BME280;72056;51.980;15.436;2023-09-19T04:32:40;99898.94;;;15.73;100.00
82413;BME280;72056;51.980;15.436;2023-09-19T04:35:09;99909.56;;;15.76;100.00
82413;BME280;72056;51.980;15.436;2023-09-19T04:37:40;99916.75;;;15.77;100.00
82413;BME280;72056;51.980;15.436;2023-09-19T04:40:08;99919.88;;;15.74;100.00
82413;BME280;72056;51.980;15.436;2023-09-19T04:42:40;99919.34;;;15.85;100.00
82413;BME280;72056;51.980;15.436;2023-09-19T04:45:08;99928.44;;;15.86;100.00
82413;BME280;72056;51.980;15.436;2023-09-19T04:47:37;99920.78;;;15.81;100.00
82413;BME280;72056;51.980;15.436;2023-09-19T04:50:08;99926.09;;;15.83;100.00
82413;BME280;72056;51.980;15.436;2023-09-19T04:52:41;99930.72;;;15.82;100.00
82413;BME280;72056;51.980;15.436;2023-09-19T04:55:09;99928.38;;;15.79;100.00
82413;BME280;72056;51.980;15.436;2023-09-19T04:57:36;99915.41;;;15.73;100.00
82413;BME280;72056;51.980;15.436;2023-09-19T05:00:04;99930.66;;;15.76;100.00
82413;BME280;72056;51.980;15.436;2023-09-19T05:02:38;99930.22;;;15.72;100.00
82413;BME280;72056;51.980;15.436;2023-09-19T05:05:08;99925.16;;;15.76;100.00
82413;BME280;72056;51.980;15.436;2023-09-19T05:07:34;99940.00;;;15.81;100.00
82413;BME280;72056;51.980;15.436;2023-09-19T05:10:02;99941.72;;;15.82;100.00
82413;BME280;72056;51.980;15.436;2023-09-19T05:12:33;99932.19;;;15.78;100.00
82413;BME280;72056;51.980;15.436;2023-09-19T05:15:00;99930.53;;;15.84;100.00
82413;BME280;72056;51.980;15.436;2023-09-19T05:17:27;99946.88;;;15.92;100.00
82413;BME280;72056;51.980;15.436;2023-09-19T05:19:53;99931.19;;;15.86;100.00
82413;BME280;72056;51.980;15.436;2023-09-19T05:22:21;99930.31;;;15.85;100.00
82413;BME280;72056;51.980;15.436;2023-09-19T05:24:50;99948.75;;;15.91;100.00
82413;BME280;72056;51.980;15.436;2023-09-19T05:27:17;99960.81;;;15.90;100.00
82413;BME280;72056;51.980;15.436;2023-09-19T05:29:43;99950.72;;;15.98;100.00
82413;BME280;72056;51.980;15.436;2023-09-19T05:32:11;99971.53;;;16.07;100.00
82413;BME280;72056;51.980;15.436;2023-09-19T05:34:37;99965.00;;;16.08;100.00
82413;BME280;72056;51.980;15.436;2023-09-19T05:37:05;99965.78;;;16.23;100.00
82413;BME280;72056;51.980;15.436;2023-09-19T05:39:33;99959.50;;;16.29;100.00
82413;BME280;72056;51.980;15.436;2023-09-19T05:41:59;99972.56;;;16.27;100.00
82413;BME280;72056;51.980;15.436;2023-09-19T05:44:26;99965.00;;;16.29;100.00
82413;BME280;72056;51.980;15.436;2023-09-19T05:46:54;99977.94;;;16.35;100.00
82413;BME280;72056;51.980;15.436;2023-09-19T05:49:23;99980.09;;;16.40;100.00
82413;BME280;72056;51.980;15.436;2023-09-19T05:51:50;99985.03;;;16.44;100.00
82413;BME280;72056;51.980;15.436;2023-09-19T05:54:19;100003.19;;;16.45;100.00
82413;BME280;72056;51.980;15.436;2023-09-19T05:56:46;100003.19;;;16.45;100.00
82413;BME280;72056;51.980;15.436;2023-09-19T05:59:13;99999.31;;;16.40;100.00
82413;BME280;72056;51.980;15.436;2023-09-19T06:01:44;99989.66;;;16.44;100.00
82413;BME280;72056;51.980;15.436;2023-09-19T06:04:11;99996.72;;;16.31;100.00
82413;BME280;72056;51.980;15.436;2023-09-19T06:06:39;100001.28;;;16.46;100.00
82413;BME280;72056;51.980;15.436;2023-09-19T06:09:06;100007.88;;;16.51;100.00
82413;BME280;72056;51.980;15.436;2023-09-19T06:11:36;100023.59;;;16.57;100.00
82413;BME280;72056;51.980;15.436;2023-09-19T06:14:03;100010.00;;;16.49;100.00
82413;BME280;72056;51.980;15.436;2023-09-19T06:16:30;100010.44;;;16.53;100.00
82413;BME280;72056;51.980;15.436;2023-09-19T06:19:16;100037.06;;;16.52;100.00
82413;BME280;72056;51.980;15.436;2023-09-19T06:21:43;100028.88;;;16.73;100.00
82413;BME280;72056;51.980;15.436;2023-09-19T06:24:11;100036.28;;;17.01;100.00
82413;BME280;72056;51.980;15.436;2023-09-19T06:26:40;100036.31;;;17.07;100.00
82413;BME280;72056;51.980;15.436;2023-09-19T06:29:10;100042.06;;;16.85;100.00
82413;BME280;72056;51.980;15.436;2023-09-19T06:31:39;100046.34;;;16.66;100.00
82413;BME280;72056;51.980;15.436;2023-09-19T06:34:04;100033.03;;;16.69;100.00
82413;BME280;72056;51.980;15.436;2023-09-19T06:36:31;100048.38;;;16.79;100.00
82413;BME280;72056;51.980;15.436;2023-09-19T06:38:57;100064.13;;;16.91;100.00
82413;BME280;72056;51.980;15.436;2023-09-19T06:41:25;100056.19;;;16.82;100.00
82413;BME280;72056;51.980;15.436;2023-09-19T06:43:56;100055.75;;;16.78;100.00
82413;BME280;72056;51.980;15.436;2023-09-19T06:46:27;100059.47;;;16.92;100.00
82413;BME280;72056;51.980;15.436;2023-09-19T06:48:58;100069.28;;;17.01;100.00
82413;BME280;72056;51.980;15.436;2023-09-19T06:54:01;100100.28;;;17.16;100.00
82413;BME280;72056;51.980;15.436;2023-09-19T06:56:29;100106.34;;;17.33;100.00
82413;BME280;72056;51.980;15.436;2023-09-19T06:58:56;100108.00;;;17.27;100.00
82413;BME280;72056;51.980;15.436;2023-09-19T07:01:22;100106.69;;;17.23;100.00
82413;BME280;72056;51.980;15.436;2023-09-19T07:03:50;100104.72;;;16.89;100.00
82413;BME280;72056;51.980;15.436;2023-09-19T07:06:19;100107.91;;;17.14;100.00
82413;BME280;72056;51.980;15.436;2023-09-19T07:08:47;100105.03;;;17.29;100.00
82413;BME280;72056;51.980;15.436;2023-09-19T07:11:16;100111.75;;;17.47;100.00
82413;BME280;72056;51.980;15.436;2023-09-19T07:13:43;100111.91;;;17.39;100.00
82413;BME280;72056;51.980;15.436;2023-09-19T07:16:11;100123.75;;;17.40;100.00
82413;BME280;72056;51.980;15.436;2023-09-19T07:18:39;100136.50;;;17.47;100.00
82413;BME280;72056;51.980;15.436;2023-09-19T07:21:06;100136.75;;;17.52;100.00
82413;BME280;72056;51.980;15.436;2023-09-19T07:23:32;100131.00;;;17.47;100.00
82413;BME280;72056;51.980;15.436;2023-09-19T07:26:01;100134.78;;;17.68;100.00
82413;BME280;72056;51.980;15.436;2023-09-19T07:28:31;100141.19;;;17.75;100.00
82413;BME280;72056;51.980;15.436;2023-09-19T07:30:57;100134.75;;;17.95;100.00
82413;BME280;72056;51.980;15.436;2023-09-19T07:33:28;100148.41;;;18.10;100.00
82413;BME280;72056;51.980;15.436;2023-09-19T07:35:55;100152.00;;;18.17;100.00
82413;BME280;72056;51.980;15.436;2023-09-19T07:38:22;100143.81;;;18.30;100.00
82413;BME280;72056;51.980;15.436;2023-09-19T07:40:49;100148.59;;;18.09;100.00
82413;BME280;72056;51.980;15.436;2023-09-19T07:43:20;100163.03;;;18.58;100.00
82413;BME280;72056;51.980;15.436;2023-09-19T07:45:47;100166.22;;;18.62;100.00
82413;BME280;72056;51.980;15.436;2023-09-19T07:48:14;100153.09;;;18.77;100.00
82413;BME280;72056;51.980;15.436;2023-09-19T07:50:41;100163.94;;;18.85;100.00
82413;BME280;72056;51.980;15.436;2023-09-19T07:53:09;100163.13;;;18.91;100.00
82413;BME280;72056;51.980;15.436;2023-09-19T07:55:36;100170.31;;;18.79;100.00
82413;BME280;72056;51.980;15.436;2023-09-19T07:58:03;100161.91;;;19.40;100.00
82413;BME280;72056;51.980;15.436;2023-09-19T08:00:32;100172.53;;;19.56;100.00
82413;BME280;72056;51.980;15.436;2023-09-19T08:03:00;100158.28;;;19.33;100.00
82413;BME280;72056;51.980;15.436;2023-09-19T08:05:30;100160.81;;;19.87;100.00
82413;BME280;72056;51.980;15.436;2023-09-19T08:07:56;100162.06;;;19.97;100.00
82413;BME280;72056;51.980;15.436;2023-09-19T08:10:23;100165.06;;;20.98;100.00
82413;BME280;72056;51.980;15.436;2023-09-19T08:12:52;100164.31;;;20.27;100.00
82413;BME280;72056;51.980;15.436;2023-09-19T08:15:24;100155.41;;;20.25;100.00
82413;BME280;72056;51.980;15.436;2023-09-19T08:17:51;100161.31;;;20.42;100.00
82413;BME280;72056;51.980;15.436;2023-09-19T08:20:17;100150.41;;;20.53;100.00
82413;BME280;72056;51.980;15.436;2023-09-19T08:22:49;100158.28;;;20.50;100.00
82413;BME280;72056;51.980;15.436;2023-09-19T08:25:19;100180.81;;;19.36;100.00
82413;BME280;72056;51.980;15.436;2023-09-19T08:27:46;100178.88;;;19.10;100.00
82413;BME280;72056;51.980;15.436;2023-09-19T08:30:17;100179.50;;;19.26;100.00
82413;BME280;72056;51.980;15.436;2023-09-19T08:32:50;100167.66;;;19.58;100.00
82413;BME280;72056;51.980;15.436;2023-09-19T08:35:18;100184.78;;;20.13;100.00
82413;BME280;72056;51.980;15.436;2023-09-19T08:37:44;100180.88;;;20.91;100.00
82413;BME280;72056;51.980;15.436;2023-09-19T08:40:12;100188.22;;;21.04;100.00
82413;BME280;72056;51.980;15.436;2023-09-19T08:42:52;100187.91;;;20.87;100.00
82413;BME280;72056;51.980;15.436;2023-09-19T08:45:23;100173.50;;;21.10;100.00
82413;BME280;72056;51.980;15.436;2023-09-19T08:50:29;100189.22;;;20.85;100.00
82413;BME280;72056;51.980;15.436;2023-09-19T08:53:01;100191.41;;;20.69;100.00
82413;BME280;72056;51.980;15.436;2023-09-19T08:55:28;100186.44;;;20.40;100.00
82413;BME280;72056;51.980;15.436;2023-09-19T08:58:00;100189.31;;;20.65;100.00
82413;BME280;72056;51.980;15.436;2023-09-19T09:00:28;100192.88;;;20.78;100.00
82413;BME280;72056;51.980;15.436;2023-09-19T09:02:55;100197.72;;;21.52;100.00
82413;BME280;72056;51.980;15.436;2023-09-19T09:05:24;100215.50;;;21.63;98.61
82413;BME280;72056;51.980;15.436;2023-09-19T09:07:52;100207.09;;;23.10;88.33
82413;BME280;72056;51.980;15.436;2023-09-19T09:10:26;100208.06;;;22.86;91.10
82413;BME280;72056;51.980;15.436;2023-09-19T09:12:54;100212.72;;;22.74;83.30
82413;BME280;72056;51.980;15.436;2023-09-19T09:15:23;100214.97;;;22.59;86.20
82413;BME280;72056;51.980;15.436;2023-09-19T09:17:51;100209.84;;;22.44;86.85
82413;BME280;72056;51.980;15.436;2023-09-19T09:20:20;100220.63;;;21.91;90.94
82413;BME280;72056;51.980;15.436;2023-09-19T09:22:55;100236.91;;;21.81;88.81
82413;BME280;72056;51.980;15.436;2023-09-19T09:25:53;100250.91;;;22.54;83.20
82413;BME280;72056;51.980;15.436;2023-09-19T09:28:25;100238.91;;;21.74;83.44
82413;BME280;72056;51.980;15.436;2023-09-19T09:31:22;100242.53;;;21.43;84.51
82413;BME280;72056;51.980;15.436;2023-09-19T09:33:55;100253.56;;;22.06;83.79
82413;BME280;72056;51.980;15.436;2023-09-19T09:36:38;100250.06;;;22.53;79.03
82413;BME280;72056;51.980;15.436;2023-09-19T09:39:06;100230.19;;;22.38;76.83
82413;BME280;72056;51.980;15.436;2023-09-19T09:41:51;100236.44;;;21.59;80.13
82413;BME280;72056;51.980;15.436;2023-09-19T09:44:18;100234.09;;;21.31;83.18
82413;BME280;72056;51.980;15.436;2023-09-19T09:46:46;100222.91;;;21.94;82.47
82413;BME280;72056;51.980;15.436;2023-09-19T09:49:22;100241.66;;;22.42;78.98
82413;BME280;72056;51.980;15.436;2023-09-19T09:52:04;100248.13;;;21.92;79.62
82413;BME280;72056;51.980;15.436;2023-09-19T09:54:35;100234.91;;;21.63;82.62
82413;BME280;72056;51.980;15.436;2023-09-19T09:57:09;100247.84;;;22.98;76.89
82413;BME280;72056;51.980;15.436;2023-09-19T09:59:52;100248.06;;;24.33;71.34
82413;BME280;72056;51.980;15.436;2023-09-19T10:02:26;100236.22;;;25.29;67.06
82413;BME280;72056;51.980;15.436;2023-09-19T10:04:56;100223.16;;;25.46;66.52
82413;BME280;72056;51.980;15.436;2023-09-19T10:07:35;100220.59;;;24.48;67.26
82413;BME280;72056;51.980;15.436;2023-09-19T10:10:04;100219.59;;;23.84;70.83
82413;BME280;72056;51.980;15.436;2023-09-19T10:12:54;100215.50;;;24.10;70.45
82413;BME280;72056;51.980;15.436;2023-09-19T10:15:23;100217.22;;;24.86;67.04
82413;BME280;72056;51.980;15.436;2023-09-19T10:17:53;100232.91;;;24.52;66.66
82413;BME280;72056;51.980;15.436;2023-09-19T10:20:25;100229.28;;;23.93;66.49
82413;BME280;72056;51.980;15.436;2023-09-19T10:22:59;100223.75;;;24.92;65.68
82413;BME280;72056;51.980;15.436;2023-09-19T10:25:28;100224.41;;;25.10;59.35
82413;BME280;72056;51.980;15.436;2023-09-19T10:28:00;100232.56;;;25.57;60.13
82413;BME280;72056;51.980;15.436;2023-09-19T10:30:31;100246.03;;;26.44;57.13
82413;BME280;72056;51.980;15.436;2023-09-19T10:33:02;100236.72;;;25.71;57.30
82413;BME280;72056;51.980;15.436;2023-09-19T10:35:29;100234.63;;;26.12;55.52
82413;BME280;72056;51.980;15.436;2023-09-19T10:38:00;100231.53;;;25.18;55.15
82413;BME280;72056;51.980;15.436;2023-09-19T10:40:27;100227.53;;;25.87;55.18
82413;BME280;72056;51.980;15.436;2023-09-19T10:43:04;100229.97;;;26.00;54.42
82413;BME280;72056;51.980;15.436;2023-09-19T10:45:32;100238.94;;;26.96;49.54
82413;BME280;72056;51.980;15.436;2023-09-19T10:47:59;100238.00;;;26.69;48.66
82413;BME280;72056;51.980;15.436;2023-09-19T10:50:30;100247.06;;;26.98;45.23
82413;BME280;72056;51.980;15.436;2023-09-19T10:53:00;100244.09;;;28.54;43.03
82413;BME280;72056;51.980;15.436;2023-09-19T10:55:31;100247.34;;;30.31;39.88
82413;BME280;72056;51.980;15.436;2023-09-19T10:58:01;100258.03;;;30.44;38.87
82413;BME280;72056;51.980;15.436;2023-09-19T11:00:30;100234.56;;;29.17;38.26
82413;BME280;72056;51.980;15.436;2023-09-19T11:05:39;100237.56;;;28.06;40.73
82413;BME280;72056;51.980;15.436;2023-09-19T11:08:10;100247.75;;;28.17;40.01
82413;BME280;72056;51.980;15.436;2023-09-19T11:10:50;100237.53;;;28.38;39.09
82413;BME280;72056;51.980;15.436;2023-09-19T11:13:26;100242.69;;;26.47;43.54
82413;BME280;72056;51.980;15.436;2023-09-19T11:16:04;100237.88;;;24.15;50.42
82413;BME280;72056;51.980;15.436;2023-09-19T11:26:44;100252.41;;;25.44;48.43
82413;BME280;72056;51.980;15.436;2023-09-19T11:29:26;100240.88;;;26.35;45.59
82413;BME280;72056;51.980;15.436;2023-09-19T11:31:57;100234.50;;;27.00;42.93
82413;BME280;72056;51.980;15.436;2023-09-19T11:34:37;100254.44;;;26.87;43.44
82413;BME280;72056;51.980;15.436;2023-09-19T11:39:37;100246.47;;;26.02;44.24
82413;BME280;72056;51.980;15.436;2023-09-19T11:42:42;100251.25;;;25.56;45.30
82413;BME280;72056;51.980;15.436;2023-09-19T11:48:26;100235.25;;;29.70;35.70
82413;BME280;72056;51.980;15.436;2023-09-19T11:50:54;100235.22;;;30.46;34.51
82413;BME280;72056;51.980;15.436;2023-09-19T11:53:21;100233.88;;;31.72;31.17
82413;BME280;72056;51.980;15.436;2023-09-19T11:55:50;100229.59;;;30.66;32.32
82413;BME280;72056;51.980;15.436;2023-09-19T11:58:18;100242.31;;;30.23;32.64
82413;BME280;72056;51.980;15.436;2023-09-19T12:00:46;100240.09;;;28.45;34.29
82413;BME280;72056;51.980;15.436;2023-09-19T12:03:19;100216.00;;;27.48;37.78
82413;BME280;72056;51.980;15.436;2023-09-19T12:05:47;100225.25;;;28.49;34.60
82413;BME280;72056;51.980;15.436;2023-09-19T12:08:15;100230.34;;;29.14;33.56
82413;BME280;72056;51.980;15.436;2023-09-19T12:10:50;100238.19;;;29.07;34.96
82413;BME280;72056;51.980;15.436;2023-09-19T12:13:18;100232.78;;;28.07;35.15
82413;BME280;72056;51.980;15.436;2023-09-19T12:15:45;100231.47;;;27.02;37.80
82413;BME280;72056;51.980;15.436;2023-09-19T12:18:29;100238.28;;;27.11;38.91
82413;BME280;72056;51.980;15.436;2023-09-19T12:20:56;100232.50;;;26.35;39.91
82413;BME280;72056;51.980;15.436;2023-09-19T12:23:25;100223.56;;;26.33;41.12
82413;BME280;72056;51.980;15.436;2023-09-19T12:25:56;100225.56;;;25.88;42.28
82413;BME280;72056;51.980;15.436;2023-09-19T12:28:26;100237.41;;;26.45;40.82
82413;BME280;72056;51.980;15.436;2023-09-19T12:30:53;100228.03;;;25.84;41.10
82413;BME280;72056;51.980;15.436;2023-09-19T12:33:21;100225.34;;;25.44;41.76
82413;BME280;72056;51.980;15.436;2023-09-19T12:35:52;100221.69;;;24.99;42.08
82413;BME280;72056;51.980;15.436;2023-09-19T12:38:25;100215.09;;;25.33;42.98
82413;BME280;72056;51.980;15.436;2023-09-19T12:40:57;100246.91;;;26.27;42.23
82413;BME280;72056;51.980;15.436;2023-09-19T12:43:31;100229.25;;;27.04;40.51
82413;BME280;72056;51.980;15.436;2023-09-19T12:45:59;100226.81;;;27.12;38.27
82413;BME280;72056;51.980;15.436;2023-09-19T12:48:26;100238.44;;;26.82;40.45
82413;BME280;72056;51.980;15.436;2023-09-19T12:51:10;100230.38;;;26.42;41.25
82413;BME280;72056;51.980;15.436;2023-09-19T12:53:41;100244.09;;;26.66;40.71
82413;BME280;72056;51.980;15.436;2023-09-19T12:56:13;100237.75;;;25.82;40.03
82413;BME280;72056;51.980;15.436;2023-09-19T12:58:56;100242.13;;;26.28;40.34
82413;BME280;72056;51.980;15.436;2023-09-19T13:01:25;100220.97;;;25.48;41.13
82413;BME280;72056;51.980;15.436;2023-09-19T13:06:38;100234.97;;;25.65;41.25
82413;BME280;72056;51.980;15.436;2023-09-19T13:09:11;100246.06;;;24.68;43.97
82413;BME280;72056;51.980;15.436;2023-09-19T13:11:41;100229.84;;;25.17;43.15
82413;BME280;72056;51.980;15.436;2023-09-19T13:19:35;100232.75;;;27.16;39.16
82413;BME280;72056;51.980;15.436;2023-09-19T13:22:01;100238.03;;;25.97;38.83
82413;BME280;72056;51.980;15.436;2023-09-19T13:24:29;100246.03;;;25.60;37.32
82413;BME280;72056;51.980;15.436;2023-09-19T13:26:56;100237.50;;;25.67;37.01
82413;BME280;72056;51.980;15.436;2023-09-19T13:29:23;100250.84;;;25.08;38.14
82413;BME280;72056;51.980;15.436;2023-09-19T13:31:53;100256.50;;;24.50;38.29
82413;BME280;72056;51.980;15.436;2023-09-19T13:34:19;100249.91;;;24.79;36.96
82413;BME280;72056;51.980;15.436;2023-09-19T13:36:46;100252.19;;;24.19;36.61
82413;BME280;72056;51.980;15.436;2023-09-19T13:39:15;100257.88;;;24.47;36.29
82413;BME280;72056;51.980;15.436;2023-09-19T13:41:44;100253.69;;;23.91;38.00
82413;BME280;72056;51.980;15.436;2023-09-19T13:44:12;100250.31;;;23.89;38.71
82413;BME280;72056;51.980;15.436;2023-09-19T13:46:40;100263.75;;;24.16;37.57
82413;BME280;72056;51.980;15.436;2023-09-19T13:49:09;100258.47;;;24.26;37.42
82413;BME280;72056;51.980;15.436;2023-09-19T13:51:36;100255.53;;;24.09;37.65
82413;BME280;72056;51.980;15.436;2023-09-19T13:54:03;100246.22;;;24.04;37.15
82413;BME280;72056;51.980;15.436;2023-09-19T13:56:31;100260.00;;;23.98;38.58
82413;BME280;72056;51.980;15.436;2023-09-19T13:58:59;100259.03;;;23.81;39.88
82413;BME280;72056;51.980;15.436;2023-09-19T14:01:25;100250.94;;;24.03;38.54
82413;BME280;72056;51.980;15.436;2023-09-19T14:03:52;100250.34;;;24.13;37.94
82413;BME280;72056;51.980;15.436;2023-09-19T14:06:21;100256.38;;;24.56;37.97
82413;BME280;72056;51.980;15.436;2023-09-19T14:08:46;100252.41;;;24.17;37.93
82413;BME280;72056;51.980;15.436;2023-09-19T14:11:13;100252.06;;;24.49;39.14
82413;BME280;72056;51.980;15.436;2023-09-19T14:13:42;100229.34;;;24.92;37.79